Time;durP1;ratioP1;P1;durP2;ratioP2;P2;SDS_P1;SDS_P2;PMS_P1;PMS_P2;Temp;Humidity;BMP_temperature;BMP_pressure;BME280_temperature;BME280_humidity;BME280_pressure;Samples;Min_cycle;Max_cycle;Signal;HPM_P1;HPM_P2
2023/08/23 00:00:05;;;;;;;;;;;;;;;30.81;44.55;94575.38;4986650;28;7013;-65
2023/08/23 00:02:59;;;;;;;;;;;;;;;30.83;43.49;94572.81;5001064;28;7265;-65
2023/08/23 00:05:48;;;;;;;;;;;;;;;30.80;43.81;94569.06;4994003;28;8217;-65
2023/08/23 00:08:16;;;;;;;;;;;;;;;30.82;44.03;94571.31;4993154;28;7381;-65
2023/08/23 00:10:44;;;;;;;;;;;;;;;30.83;44.25;94561.69;4992390;28;9087;-65
2023/08/23 00:13:12;;;;;;;;;;;;;;;30.81;44.05;94564.28;4973828;28;9276;-65
2023/08/23 00:15:45;;;;;;;;;;;;;;;30.80;43.62;94563.53;4973327;28;9245;-65
2023/08/23 00:18:11;;;;;;;;;;;;;;;30.80;44.15;94565.56;4987713;28;7195;-65
2023/08/23 00:20:42;;;;;;;;;;;;;;;30.77;43.96;94564.63;4966177;28;7254;-65
2023/08/23 00:23:15;;;;;;;;;;;;;;;30.79;43.97;94572.41;4974330;28;7421;-65
2023/08/23 00:25:53;;;;;;;;;;;;;;;30.76;43.59;94571.44;4972809;28;7208;-65
2023/08/23 00:28:30;;;;;;;;;;;;;;;30.76;43.76;94574.22;4974061;28;7369;-65
2023/08/23 00:31:31;;;;;;;;;;;;;;;30.76;44.44;94563.13;5007562;28;7195;-65
2023/08/23 00:34:06;;;;;;;;;;;;;;;30.75;43.66;94567.19;4993645;28;7149;-65
2023/08/23 00:36:41;;;;;;;;;;;;;;;30.73;43.41;94563.47;4989051;28;7072;-65
2023/08/23 00:39:23;;;;;;;;;;;;;;;30.71;44.21;94557.69;4977024;28;7231;-64
2023/08/23 00:42:35;;;;;;;;;;;;;;;30.74;43.50;94565.69;4995843;28;9466;-65
2023/08/23 00:45:48;;;;;;;;;;;;;;;30.75;43.41;94563.66;5000001;28;7236;-62
2023/08/23 00:48:50;;;;;;;;;;;;;;;30.74;44.13;94564.94;5002424;28;9224;-62
2023/08/23 00:51:35;;;;;;;;;;;;;;;30.74;44.09;94570.50;4940376;28;9550;-62
2023/08/23 00:54:05;;;;;;;;;;;;;;;30.72;43.81;94564.72;4924622;29;9475;-62
2023/08/23 00:56:33;;;;;;;;;;;;;;;30.72;44.50;94568.25;4920182;29;9267;-62
2023/08/23 00:59:04;;;;;;;;;;;;;;;30.73;44.09;94567.00;4928684;29;7213;-62
2023/08/23 01:01:31;;;;;;;;;;;;;;;30.73;44.39;94566.25;4934005;29;7133;-62
2023/08/23 01:03:58;;;;;;;;;;;;;;;30.72;43.58;94567.50;4918983;29;6994;-62
2023/08/23 01:06:46;;;;;;;;;;;;;;;30.72;43.77;94575.84;4921700;29;6991;-62
2023/08/23 01:09:31;;;;;;;;;;;;;;;30.69;43.76;94571.38;4923911;29;7261;-62
2023/08/23 01:12:15;;;;;;;;;;;;;;;30.67;44.52;94571.19;4935252;28;7029;-62
2023/08/23 01:14:52;;;;;;;;;;;;;;;30.67;43.49;94571.91;4928015;29;7206;-62
2023/08/23 01:17:20;;;;;;;;;;;;;;;30.67;44.71;94569.13;4917651;28;9645;-62
2023/08/23 01:19:49;;;;;;;;;;;;;;;30.66;44.20;94575.22;4932022;28;7914;-62
2023/08/23 01:22:22;;;;;;;;;;;;;;;30.67;43.91;94579.50;4919707;29;7555;-62
2023/08/23 01:25:07;;;;;;;;;;;;;;;30.66;44.14;94581.53;4941539;28;6979;-62
2023/08/23 01:27:40;;;;;;;;;;;;;;;30.65;44.23;94568.19;5038235;28;7232;-63
2023/08/23 01:30:14;;;;;;;;;;;;;;;30.66;44.30;94575.22;5005669;28;7043;-62
2023/08/23 01:33:05;;;;;;;;;;;;;;;30.69;43.58;94574.16;5023435;28;8745;-62
2023/08/23 01:36:27;;;;;;;;;;;;;;;30.68;43.48;94567.09;4996851;28;8747;-62
2023/08/23 01:39:15;;;;;;;;;;;;;;;30.65;44.32;94565.41;4978682;28;7527;-62
2023/08/23 01:41:56;;;;;;;;;;;;;;;30.64;44.67;94570.22;4960973;28;7262;-62
2023/08/23 01:45:07;;;;;;;;;;;;;;;30.65;44.44;94566.16;4985039;28;7301;-62
2023/08/23 01:47:54;;;;;;;;;;;;;;;30.62;44.56;94569.28;4965149;28;7676;-62
2023/08/23 01:50:20;;;;;;;;;;;;;;;30.64;43.99;94566.69;4971512;28;7282;-63
2023/08/23 01:52:59;;;;;;;;;;;;;;;30.64;43.69;94566.69;4954112;28;7053;-62
2023/08/23 01:55:35;;;;;;;;;;;;;;;30.62;43.64;94563.72;4975220;28;8587;-56
2023/08/23 01:58:03;;;;;;;;;;;;;;;30.59;43.94;94565.53;4975368;28;9049;-56
2023/08/23 02:00:53;;;;;;;;;;;;;;;30.60;43.96;94561.50;4966621;28;7191;-56
2023/08/23 02:03:19;;;;;;;;;;;;;;;30.58;44.05;94555.00;4949480;28;8239;-56
2023/08/23 02:05:54;;;;;;;;;;;;;;;30.59;44.77;94562.00;4947041;28;7421;-57
2023/08/23 02:08:31;;;;;;;;;;;;;;;30.57;44.11;94559.03;4965400;28;7234;-56
2023/08/23 02:11:18;;;;;;;;;;;;;;;30.59;44.14;94559.25;4967672;28;7086;-56
2023/08/23 02:13:44;;;;;;;;;;;;;;;30.58;44.66;94557.75;5008883;28;7235;-56
2023/08/23 02:16:28;;;;;;;;;;;;;;;30.57;43.62;94545.16;5002561;28;7245;-56
2023/08/23 02:18:54;;;;;;;;;;;;;;;30.54;43.88;94549.75;5012782;28;7916;-55
2023/08/23 02:21:36;;;;;;;;;;;;;;;30.57;43.98;94553.47;5019345;28;7000;-56
2023/08/23 02:24:23;;;;;;;;;;;;;;;30.55;44.83;94551.25;5011844;28;8787;-56
2023/08/23 02:26:51;;;;;;;;;;;;;;;30.56;44.04;94546.47;4999055;28;8481;-56
2023/08/23 02:29:37;;;;;;;;;;;;;;;30.54;43.99;94542.19;5003463;28;7001;-56
2023/08/23 02:32:05;;;;;;;;;;;;;;;30.54;44.42;94541.44;5015258;28;7291;-56
2023/08/23 02:34:35;;;;;;;;;;;;;;;30.53;44.71;94537.16;5015771;28;9089;-56
2023/08/23 02:37:03;;;;;;;;;;;;;;;30.53;44.09;94540.69;5022058;28;7224;-56
2023/08/23 02:39:47;;;;;;;;;;;;;;;30.53;44.07;94534.41;5019697;28;7091;-56
2023/08/23 02:42:24;;;;;;;;;;;;;;;30.50;43.92;94541.00;5016831;28;7096;-56
2023/08/23 02:44:55;;;;;;;;;;;;;;;30.49;44.05;94540.25;5015649;28;7242;-56
2023/08/23 02:47:40;;;;;;;;;;;;;;;30.49;44.73;94542.31;5011810;28;6978;-56
2023/08/23 02:50:14;;;;;;;;;;;;;;;30.46;44.75;94541.38;5003978;28;9060;-56
2023/08/23 02:52:53;;;;;;;;;;;;;;;30.49;44.35;94548.59;5009879;28;9263;-56
2023/08/23 02:55:19;;;;;;;;;;;;;;;30.48;44.20;94554.69;5014271;28;7000;-56
2023/08/23 02:57:49;;;;;;;;;;;;;;;30.47;44.61;94548.38;5018397;28;7435;-56
2023/08/23 03:00:18;;;;;;;;;;;;;;;30.46;43.92;94549.69;5028585;28;7420;-56
2023/08/23 03:02:49;;;;;;;;;;;;;;;30.45;45.23;94556.50;5032605;28;7066;-56
2023/08/23 03:05:24;;;;;;;;;;;;;;;30.44;44.79;94549.47;5017564;28;9282;-64
2023/08/23 03:07:59;;;;;;;;;;;;;;;30.44;44.06;94546.72;5020503;28;7281;-65
2023/08/23 03:10:27;;;;;;;;;;;;;;;30.43;44.34;94550.75;5012247;28;9010;-64
2023/08/23 03:12:53;;;;;;;;;;;;;;;30.42;43.87;94540.97;5010978;28;7003;-64
2023/08/23 03:15:19;;;;;;;;;;;;;;;30.45;44.49;94541.88;5017719;28;6974;-65
2023/08/23 03:17:52;;;;;;;;;;;;;;;30.44;44.36;94543.19;5032347;28;9082;-65
2023/08/23 03:20:18;;;;;;;;;;;;;;;30.39;44.69;94541.28;5029604;28;7946;-65
2023/08/23 03:23:01;;;;;;;;;;;;;;;30.38;44.00;94546.06;5036079;28;8388;-64
2023/08/23 03:25:44;;;;;;;;;;;;;;;30.39;43.88;94544.03;5027587;28;7247;-65
2023/08/23 03:28:10;;;;;;;;;;;;;;;30.39;44.70;94538.50;5040403;28;7060;-65
2023/08/23 03:30:42;;;;;;;;;;;;;;;30.37;44.53;94539.03;5012474;28;9449;-65
2023/08/23 03:33:14;;;;;;;;;;;;;;;30.34;44.25;94544.94;5041406;28;7010;-64
2023/08/23 03:35:39;;;;;;;;;;;;;;;30.31;44.44;94541.22;5015016;28;9081;-65
2023/08/23 03:38:06;;;;;;;;;;;;;;;30.32;44.52;94541.97;5016356;28;7183;-65
2023/08/23 03:40:38;;;;;;;;;;;;;;;30.33;44.50;94537.88;5032178;28;9407;-65
2023/08/23 03:43:04;;;;;;;;;;;;;;;30.29;44.90;94538.19;5028161;28;9418;-64
2023/08/23 03:45:31;;;;;;;;;;;;;;;30.32;44.34;94542.69;5017210;28;7007;-65
2023/08/23 03:47:57;;;;;;;;;;;;;;;30.29;44.44;94543.00;5017425;28;7387;-64
2023/08/23 03:50:25;;;;;;;;;;;;;;;30.25;44.70;94542.59;5005154;28;7206;-65
2023/08/23 03:52:56;;;;;;;;;;;;;;;30.27;45.05;94545.56;5028191;28;9360;-65
2023/08/23 03:55:36;;;;;;;;;;;;;;;30.27;44.24;94549.09;5031600;28;7210;-65
2023/08/23 03:58:05;;;;;;;;;;;;;;;30.26;45.08;94538.50;5010884;28;7062;-65
2023/08/23 04:00:38;;;;;;;;;;;;;;;30.23;44.31;94545.88;5008725;28;9043;-65
2023/08/23 04:03:06;;;;;;;;;;;;;;;30.23;44.32;94547.94;5017772;28;9132;-65
2023/08/23 04:06:17;;;;;;;;;;;;;;;30.24;44.13;94554.97;5028370;28;8467;-65
2023/08/23 04:08:58;;;;;;;;;;;;;;;30.24;44.92;94552.94;5023896;28;9132;-65
2023/08/23 04:11:29;;;;;;;;;;;;;;;30.21;44.93;94545.69;5027869;28;9468;-65
2023/08/23 04:13:57;;;;;;;;;;;;;;;30.21;44.18;94548.44;5001916;28;8952;-64
2023/08/23 04:16:25;;;;;;;;;;;;;;;30.22;44.81;94549.94;5021659;28;8801;-65
2023/08/23 04:18:56;;;;;;;;;;;;;;;30.21;44.41;94542.91;5025800;28;9394;-62
2023/08/23 04:21:24;;;;;;;;;;;;;;;30.17;44.74;94538.97;5005513;28;8728;-65
2023/08/23 04:24:42;;;;;;;;;;;;;;;30.17;44.24;94542.50;5008301;28;7544;-64
2023/08/23 04:27:27;;;;;;;;;;;;;;;30.17;44.31;94547.28;4989280;28;7277;-65
2023/08/23 04:30:08;;;;;;;;;;;;;;;30.23;44.18;94543.09;4975286;28;7161;-65
2023/08/23 04:32:36;;;;;;;;;;;;;;;30.25;45.02;94546.13;4976159;28;7071;-65
2023/08/23 04:35:13;;;;;;;;;;;;;;;30.33;44.30;94548.97;4989579;28;9208;-65
2023/08/23 04:37:43;;;;;;;;;;;;;;;30.32;43.78;94539.91;4985254;28;9115;-65
2023/08/23 04:40:19;;;;;;;;;;;;;;;30.35;44.41;94546.41;4989496;28;7403;-65
2023/08/23 04:43:18;;;;;;;;;;;;;;;30.35;44.26;94547.16;4981909;28;8743;-65
2023/08/23 04:45:44;;;;;;;;;;;;;;;30.31;44.38;94534.91;4970830;28;7184;-65
2023/08/23 04:48:21;;;;;;;;;;;;;;;30.33;43.51;94540.66;4984733;28;7034;-65
2023/08/23 04:50:57;;;;;;;;;;;;;;;30.36;44.54;94542.38;4988691;28;7245;-65
2023/08/23 04:53:38;;;;;;;;;;;;;;;30.35;43.84;94538.84;4985378;28;9314;-65
2023/08/23 04:56:14;;;;;;;;;;;;;;;30.37;44.10;94552.16;4990935;28;7261;-65
2023/08/23 04:58:50;;;;;;;;;;;;;;;30.36;44.13;94551.41;4986438;28;8728;-66
2023/08/23 05:01:20;;;;;;;;;;;;;;;30.30;43.97;94539.66;4987150;28;8758;-66
2023/08/23 05:03:53;;;;;;;;;;;;;;;30.36;43.60;94553.47;4994557;28;7247;-65
2023/08/23 05:06:21;;;;;;;;;;;;;;;30.35;43.33;94549.19;5021074;28;7688;-66
2023/08/23 05:09:02;;;;;;;;;;;;;;;30.32;44.05;94541.97;5003526;28;7234;-66
2023/08/23 05:11:28;;;;;;;;;;;;;;;30.34;43.62;94550.50;5005651;28;7184;-66
2023/08/23 05:13:54;;;;;;;;;;;;;;;30.33;43.99;94558.06;5011037;28;6981;-66
2023/08/23 05:16:20;;;;;;;;;;;;;;;30.29;44.17;94559.66;5007649;28;9054;-65
2023/08/23 05:18:46;;;;;;;;;;;;;;;30.23;44.59;94551.44;5001287;28;8672;-65
2023/08/23 05:21:14;;;;;;;;;;;;;;;30.25;43.63;94571.09;5021497;28;9387;-66
2023/08/23 05:23:40;;;;;;;;;;;;;;;30.24;44.68;94564.03;5021495;28;7071;-66
2023/08/23 05:26:06;;;;;;;;;;;;;;;30.25;44.45;94573.09;5012864;28;9080;-65
2023/08/23 05:28:32;;;;;;;;;;;;;;;30.22;43.77;94565.84;4996923;28;7192;-65
2023/08/23 05:31:00;;;;;;;;;;;;;;;30.26;44.65;94567.00;5007830;28;9372;-65
2023/08/23 05:33:26;;;;;;;;;;;;;;;30.27;44.42;94568.53;5020070;28;6971;-65
2023/08/23 05:35:52;;;;;;;;;;;;;;;30.30;44.45;94566.66;4994271;28;9018;-65
2023/08/23 05:38:55;;;;;;;;;;;;;;;30.30;44.80;94575.75;5004915;28;7309;-65
2023/08/23 05:41:35;;;;;;;;;;;;;;;30.29;44.01;94574.28;4989418;28;9272;-65
2023/08/23 05:44:15;;;;;;;;;;;;;;;30.29;44.15;94571.50;5021574;28;7264;-65
2023/08/23 05:47:01;;;;;;;;;;;;;;;30.23;44.59;94565.31;5006851;28;9022;-65
2023/08/23 05:49:29;;;;;;;;;;;;;;;30.19;45.11;94583.59;4994132;28;9158;-65
2023/08/23 05:52:05;;;;;;;;;;;;;;;30.13;45.46;94571.84;5005500;28;9616;-65
2023/08/23 05:54:50;;;;;;;;;;;;;;;30.12;45.47;94567.59;5004122;28;8855;-65
2023/08/23 05:57:18;;;;;;;;;;;;;;;30.14;45.29;94576.13;5005348;28;7412;-65
2023/08/23 05:59:47;;;;;;;;;;;;;;;30.10;45.02;94568.09;4992184;28;6992;-65
2023/08/23 06:02:26;;;;;;;;;;;;;;;30.07;44.99;94571.97;4986603;28;8746;-65
2023/08/23 06:05:06;;;;;;;;;;;;;;;30.08;44.96;94573.44;5010822;28;9015;-65
2023/08/23 06:07:50;;;;;;;;;;;;;;;30.08;45.38;94579.00;5008761;28;7154;-65
2023/08/23 06:10:27;;;;;;;;;;;;;;;30.10;45.40;94576.44;4999008;28;7268;-65
2023/08/23 06:13:14;;;;;;;;;;;;;;;30.15;44.90;94583.91;5011519;28;8460;-65
2023/08/23 06:15:39;;;;;;;;;;;;;;;30.18;45.43;94582.84;5009219;28;7851;-65
2023/08/23 06:18:08;;;;;;;;;;;;;;;30.20;45.99;94580.25;5006861;28;7663;-65
2023/08/23 06:20:38;;;;;;;;;;;;;;;30.21;45.29;94578.97;5007565;28;8698;-65
2023/08/23 06:23:09;;;;;;;;;;;;;;;30.24;45.15;94583.47;5010242;28;7236;-65
2023/08/23 06:25:48;;;;;;;;;;;;;;;30.26;45.47;94583.66;4993791;28;9052;-65
2023/08/23 06:28:19;;;;;;;;;;;;;;;30.24;44.88;94571.59;5005638;28;7232;-65
2023/08/23 06:30:45;;;;;;;;;;;;;;;30.28;45.95;94581.09;5007788;28;7309;-65
2023/08/23 06:33:34;;;;;;;;;;;;;;;30.29;45.84;94581.84;5007842;28;6985;-65
2023/08/23 06:36:15;;;;;;;;;;;;;;;30.30;44.87;94580.53;5003808;28;7278;-58
2023/08/23 06:38:57;;;;;;;;;;;;;;;30.28;45.97;94580.34;5006124;28;7283;-58
2023/08/23 06:41:24;;;;;;;;;;;;;;;30.30;45.33;94584.06;5018311;28;9147;-58
2023/08/23 06:44:03;;;;;;;;;;;;;;;30.30;45.62;94581.28;5005429;28;7238;-58
2023/08/23 06:46:33;;;;;;;;;;;;;;;30.32;45.25;94594.69;5004959;28;8730;-58
2023/08/23 06:49:18;;;;;;;;;;;;;;;30.31;45.87;94588.38;5006136;28;9090;-58
2023/08/23 06:51:46;;;;;;;;;;;;;;;30.34;44.95;94590.06;4998376;28;7798;-58
2023/08/23 06:54:35;;;;;;;;;;;;;;;30.33;45.71;94582.28;5014708;28;7239;-58
2023/08/23 06:57:09;;;;;;;;;;;;;;;30.32;46.64;94583.59;5023250;28;7294;-58
2023/08/23 07:00:06;;;;;;;;;;;;;;;30.34;45.86;94597.66;5010575;28;7202;-58
2023/08/23 07:02:52;;;;;;;;;;;;;;;30.37;46.29;94582.69;4961720;28;7352;-58
2023/08/23 07:05:18;;;;;;;;;;;;;;;30.37;46.14;94577.16;4979668;28;6977;-58
2023/08/23 07:07:54;;;;;;;;;;;;;;;30.36;45.97;94593.03;4947791;28;7267;-58
2023/08/23 07:10:38;;;;;;;;;;;;;;;30.33;45.78;94585.81;4966184;28;8789;-58
2023/08/23 07:13:16;;;;;;;;;;;;;;;30.34;46.28;94590.06;4969720;28;6990;-58
2023/08/23 07:16:02;;;;;;;;;;;;;;;30.34;45.77;94586.56;4969141;28;7217;-58
2023/08/23 07:18:37;;;;;;;;;;;;;;;30.34;45.43;94589.34;4979158;28;6980;-58
2023/08/23 07:21:23;;;;;;;;;;;;;;;30.35;45.48;94597.13;4987376;28;7332;-58
2023/08/23 07:23:58;;;;;;;;;;;;;;;30.36;45.52;94593.03;4968932;28;7000;-58
2023/08/23 07:26:57;;;;;;;;;;;;;;;30.37;46.30;94593.78;4974181;28;7142;-58
2023/08/23 07:29:40;;;;;;;;;;;;;;;30.36;46.30;94592.31;4952035;29;8243;-58
2023/08/23 07:32:06;;;;;;;;;;;;;;;30.36;45.25;94581.94;4935347;29;9016;-58
2023/08/23 07:34:33;;;;;;;;;;;;;;;30.40;45.97;94604.59;4935726;29;7431;-58
2023/08/23 07:37:11;;;;;;;;;;;;;;;30.38;45.27;94593.25;4952440;28;7053;-58
2023/08/23 07:40:04;;;;;;;;;;;;;;;30.41;46.32;94600.50;4952147;28;9220;-58
2023/08/23 07:42:41;;;;;;;;;;;;;;;30.43;45.89;94597.19;4962373;28;7270;-58
2023/08/23 07:45:20;;;;;;;;;;;;;;;30.42;45.31;94599.25;4958140;28;8742;-62
2023/08/23 07:48:11;;;;;;;;;;;;;;;30.43;45.32;94609.03;4970490;28;7055;-62
2023/08/23 07:50:49;;;;;;;;;;;;;;;30.43;45.27;94608.28;4954461;28;8784;-62
2023/08/23 07:53:27;;;;;;;;;;;;;;;30.43;45.94;94611.06;4955470;28;7297;-61
2023/08/23 07:55:59;;;;;;;;;;;;;;;30.42;45.87;94601.25;4971531;28;6927;-61
2023/08/23 07:59:17;;;;;;;;;;;;;;;30.43;46.32;94611.06;4957943;28;7190;-62
2023/08/23 08:02:01;;;;;;;;;;;;;;;30.40;45.81;94606.59;4930196;28;9012;-61
2023/08/23 08:04:29;;;;;;;;;;;;;;;30.42;46.18;94613.13;4956088;28;9284;-62
2023/08/23 08:07:12;;;;;;;;;;;;;;;30.42;46.33;94601.25;4943137;28;9212;-61
2023/08/23 08:09:39;;;;;;;;;;;;;;;30.44;46.63;94607.03;4963887;28;8982;-62
2023/08/23 08:12:05;;;;;;;;;;;;;;;30.43;45.65;94611.81;4969674;28;7468;-62
2023/08/23 08:14:31;;;;;;;;;;;;;;;30.44;45.51;94605.00;4945974;28;7268;-62
2023/08/23 08:16:59;;;;;;;;;;;;;;;30.44;45.78;94604.25;4967880;28;7419;-62
2023/08/23 08:19:25;;;;;;;;;;;;;;;30.43;46.61;94603.50;4956714;28;8251;-62
2023/08/23 08:21:53;;;;;;;;;;;;;;;30.45;45.84;94600.16;4967504;28;7061;-61
2023/08/23 08:24:39;;;;;;;;;;;;;;;30.41;46.92;94606.06;4951783;28;8485;-62
2023/08/23 08:27:16;;;;;;;;;;;;;;;30.45;47.25;94589.81;4972447;28;8229;-62
2023/08/23 08:30:03;;;;;;;;;;;;;;;30.49;46.68;94595.06;4968074;28;7348;-62
2023/08/23 08:32:46;;;;;;;;;;;;;;;30.50;47.18;94604.88;4968952;28;7162;-61
2023/08/23 08:35:14;;;;;;;;;;;;;;;30.49;46.78;94604.09;4950054;28;7210;-61
2023/08/23 08:37:44;;;;;;;;;;;;;;;30.48;46.67;94599.84;4981502;28;8195;-61
2023/08/23 08:40:11;;;;;;;;;;;;;;;30.47;46.89;94601.13;5021486;28;9069;-61
2023/08/23 08:42:46;;;;;;;;;;;;;;;30.45;46.89;94595.38;5025164;28;8787;-61
2023/08/23 08:45:24;;;;;;;;;;;;;;;30.47;46.63;94592.06;5021595;28;7399;-61
2023/08/23 08:48:01;;;;;;;;;;;;;;;30.45;46.69;94600.16;5004870;28;8219;-62
2023/08/23 08:50:32;;;;;;;;;;;;;;;30.45;47.18;94600.94;5013141;28;7007;-62
2023/08/23 08:53:06;;;;;;;;;;;;;;;30.56;46.39;94594.38;5006771;28;7516;-62
2023/08/23 08:55:35;;;;;;;;;;;;;;;30.64;46.63;94594.47;5018486;28;8648;-64
2023/08/23 08:58:08;;;;;;;;;;;;;;;30.64;46.38;94595.22;5018233;28;6987;-64
2023/08/23 09:00:49;;;;;;;;;;;;;;;30.65;46.31;94601.50;5017782;28;7143;-64
2023/08/23 09:03:18;;;;;;;;;;;;;;;30.67;46.61;94599.69;5040004;28;7415;-65
2023/08/23 09:05:48;;;;;;;;;;;;;;;30.72;45.81;94595.28;5007452;28;7246;-63
2023/08/23 09:08:17;;;;;;;;;;;;;;;30.71;46.29;94602.84;5003401;28;8785;-63
2023/08/23 09:10:44;;;;;;;;;;;;;;;30.65;46.07;94601.50;4999742;28;6995;-63
2023/08/23 09:13:15;;;;;;;;;;;;;;;30.62;46.73;94605.38;5024524;28;9402;-63
2023/08/23 09:15:46;;;;;;;;;;;;;;;30.57;46.25;94600.69;5008600;28;7171;-62
2023/08/23 09:18:22;;;;;;;;;;;;;;;30.56;46.26;94611.03;5004749;28;8468;-63
2023/08/23 09:20:48;;;;;;;;;;;;;;;30.52;46.00;94608.59;5026247;28;7007;-63
2023/08/23 09:23:15;;;;;;;;;;;;;;;30.52;45.94;94611.38;5014698;28;7245;-63
2023/08/23 09:26:00;;;;;;;;;;;;;;;30.53;48.92;94612.88;5014044;28;7325;-63
2023/08/23 09:28:42;;;;;;;;;;;;;;;30.61;48.67;94617.75;5009620;28;7081;-63
2023/08/23 09:31:15;;;;;;;;;;;;;;;30.60;48.03;94608.69;5008677;28;9370;-63
2023/08/23 09:33:42;;;;;;;;;;;;;;;30.58;47.93;94605.69;5006808;28;9414;-63
2023/08/23 09:36:29;;;;;;;;;;;;;;;30.60;48.40;94607.94;5006925;28;7279;-64
2023/08/23 09:39:07;;;;;;;;;;;;;;;30.58;47.51;94613.28;5022866;28;9079;-63
2023/08/23 09:41:44;;;;;;;;;;;;;;;30.57;47.87;94617.34;5028757;28;9099;-63
2023/08/23 09:44:22;;;;;;;;;;;;;;;30.57;47.40;94617.34;5008210;28;6974;-63
2023/08/23 09:47:22;;;;;;;;;;;;;;;30.58;47.88;94625.13;5010828;28;7913;-63
2023/08/23 09:50:06;;;;;;;;;;;;;;;30.56;47.50;94615.84;4984583;28;9299;-63
2023/08/23 09:53:00;;;;;;;;;;;;;;;30.59;47.18;94621.06;4978083;28;6931;-63
2023/08/23 09:55:42;;;;;;;;;;;;;;;30.61;47.05;94609.41;4989643;28;9457;-64
2023/08/23 09:58:11;;;;;;;;;;;;;;;30.59;46.73;94600.88;4973656;28;7104;-63
2023/08/23 10:01:03;;;;;;;;;;;;;;;30.62;46.64;94599.81;4979837;28;7020;-64
2023/08/23 10:03:29;;;;;;;;;;;;;;;30.59;47.31;94603.66;4970101;28;7267;-63
2023/08/23 10:06:06;;;;;;;;;;;;;;;30.56;46.75;94599.94;4965948;28;7264;-56
2023/08/23 10:08:35;;;;;;;;;;;;;;;30.56;47.60;94591.59;4988142;28;8484;-56
2023/08/23 10:11:02;;;;;;;;;;;;;;;30.56;47.20;94593.66;5002080;28;7032;-57
2023/08/23 10:13:42;;;;;;;;;;;;;;;30.54;47.52;94585.84;4988036;28;7081;-57
2023/08/23 10:16:21;;;;;;;;;;;;;;;30.50;47.97;94583.41;4989582;28;9104;-56
2023/08/23 10:19:12;;;;;;;;;;;;;;;30.48;47.54;94585.97;4979297;28;6989;-56
2023/08/23 10:21:39;;;;;;;;;;;;;;;30.48;48.26;94582.44;4982791;28;9104;-57
2023/08/23 10:24:07;;;;;;;;;;;;;;;30.50;47.72;94582.66;5002096;28;7232;-56
2023/08/23 10:26:49;;;;;;;;;;;;;;;30.47;47.86;94576.16;5040897;28;9237;-57
2023/08/23 10:29:31;;;;;;;;;;;;;;;30.46;47.82;94577.44;4996622;28;7054;-57
2023/08/23 10:32:16;;;;;;;;;;;;;;;30.46;47.38;94571.91;5025060;28;9041;-57
2023/08/23 10:34:42;;;;;;;;;;;;;;;30.50;47.47;94572.31;5005727;28;7173;-57
2023/08/23 10:37:32;;;;;;;;;;;;;;;30.53;47.79;94562.91;5008478;28;7478;-57
2023/08/23 10:40:08;;;;;;;;;;;;;;;30.58;46.90;94568.88;5009564;28;7473;-57
2023/08/23 10:42:40;;;;;;;;;;;;;;;30.59;47.32;94568.31;5002701;28;7070;-61
2023/08/23 10:45:06;;;;;;;;;;;;;;;30.64;46.86;94572.25;5006610;28;7004;-57
2023/08/23 10:47:36;;;;;;;;;;;;;;;30.65;47.26;94570.94;5004409;28;7000;-57
2023/08/23 10:50:06;;;;;;;;;;;;;;;30.69;46.58;94568.59;5023361;28;7568;-57
2023/08/23 10:52:33;;;;;;;;;;;;;;;30.72;47.30;94573.06;4994169;28;9340;-57
2023/08/23 10:55:37;;;;;;;;;;;;;;;30.74;46.49;94570.50;5014362;28;8873;-57
2023/08/23 10:58:12;;;;;;;;;;;;;;;30.73;47.22;94563.47;5010623;28;9391;-57
2023/08/23 11:00:56;;;;;;;;;;;;;;;30.74;46.46;94567.72;5017695;28;9343;-57
2023/08/23 11:03:24;;;;;;;;;;;;;;;30.72;46.72;94561.97;4992840;28;7035;-57
2023/08/23 11:05:51;;;;;;;;;;;;;;;30.74;46.32;94559.38;5010457;28;7055;-57
2023/08/23 11:08:17;;;;;;;;;;;;;;;30.73;46.82;94566.25;5010612;28;9423;-57
2023/08/23 11:10:54;;;;;;;;;;;;;;;30.73;46.67;94561.44;5010945;28;7057;-57
2023/08/23 11:13:32;;;;;;;;;;;;;;;30.73;45.95;94558.66;5003150;28;7231;-57
2023/08/23 11:16:07;;;;;;;;;;;;;;;30.72;46.19;94561.97;5008152;28;7251;-66
2023/08/23 11:18:36;;;;;;;;;;;;;;;30.72;46.48;94562.72;5014388;28;9094;-66
2023/08/23 11:21:06;;;;;;;;;;;;;;;30.75;47.00;94563.66;5012925;28;7193;-66
2023/08/23 11:23:44;;;;;;;;;;;;;;;30.77;46.62;94561.09;5009006;28;8464;-66
2023/08/23 11:26:20;;;;;;;;;;;;;;;30.78;46.58;94565.34;5007422;28;6998;-66
2023/08/23 11:28:47;;;;;;;;;;;;;;;30.80;46.04;94548.91;5014241;28;7004;-66
2023/08/23 11:31:51;;;;;;;;;;;;;;;30.79;45.71;94550.94;4999681;28;8834;-66
2023/08/23 11:34:17;;;;;;;;;;;;;;;30.80;45.84;94554.47;5012773;28;7018;-66
2023/08/23 11:36:44;;;;;;;;;;;;;;;30.80;46.43;94551.69;5024909;28;7245;-66
2023/08/23 11:39:15;;;;;;;;;;;;;;;30.80;46.39;94557.25;4999717;28;7054;-66
2023/08/23 11:41:42;;;;;;;;;;;;;;;30.80;45.77;94552.41;5038821;28;9223;-66
2023/08/23 11:44:20;;;;;;;;;;;;;;;30.82;46.75;94551.88;5037254;28;7014;-66
2023/08/23 11:46:48;;;;;;;;;;;;;;;30.81;46.34;94544.81;5012315;28;7411;-66
2023/08/23 11:49:18;;;;;;;;;;;;;;;30.84;46.69;94550.03;5022391;28;7069;-66
2023/08/23 11:51:50;;;;;;;;;;;;;;;30.84;46.43;94550.03;5006338;28;7488;-66
2023/08/23 11:54:17;;;;;;;;;;;;;;;30.86;46.53;94549.50;5004758;28;9251;-66
2023/08/23 11:56:49;;;;;;;;;;;;;;;30.85;46.61;94551.53;4999567;28;9019;-66
2023/08/23 11:59:17;;;;;;;;;;;;;;;30.88;46.00;94558.06;5016143;28;7755;-66
2023/08/23 12:01:43;;;;;;;;;;;;;;;30.88;46.01;94552.53;5013840;28;6997;-66
2023/08/23 12:04:12;;;;;;;;;;;;;;;30.90;46.47;94561.06;5001139;28;8964;-66
2023/08/23 12:06:42;;;;;;;;;;;;;;;30.90;45.91;94555.50;5013279;28;8176;-66
2023/08/23 12:09:15;;;;;;;;;;;;;;;30.91;46.46;94556.97;5032367;28;9066;-66
2023/08/23 12:11:45;;;;;;;;;;;;;;;30.92;46.67;94548.13;5004464;28;9008;-68
2023/08/23 12:14:18;;;;;;;;;;;;;;;30.93;46.23;94549.59;5021656;28;6984;-66
2023/08/23 12:16:45;;;;;;;;;;;;;;;30.97;46.43;94546.50;5017931;28;7034;-66
2023/08/23 12:19:11;;;;;;;;;;;;;;;30.96;46.66;94542.97;5008511;28;7070;-66
2023/08/23 12:21:42;;;;;;;;;;;;;;;30.98;46.17;94542.41;5032900;28;7233;-66
2023/08/23 12:24:10;;;;;;;;;;;;;;;30.98;46.34;94540.38;5028638;28;7224;-63
2023/08/23 12:26:37;;;;;;;;;;;;;;;31.01;46.14;94544.09;5021549;28;9054;-62
2023/08/23 12:29:04;;;;;;;;;;;;;;;31.02;46.17;94538.00;4998646;28;7115;-63
2023/08/23 12:31:37;;;;;;;;;;;;;;;31.06;47.13;94534.88;5001631;28;9222;-62
2023/08/23 12:34:05;;;;;;;;;;;;;;;31.03;46.50;94533.94;5014891;28;7376;-62
2023/08/23 12:37:05;;;;;;;;;;;;;;;31.09;46.85;94539.34;5013732;28;7833;-63
2023/08/23 12:39:49;;;;;;;;;;;;;;;31.09;46.21;94540.09;4962435;28;7290;-62
2023/08/23 12:42:24;;;;;;;;;;;;;;;31.07;46.99;94536.38;4969112;28;7212;-63
2023/08/23 12:44:50;;;;;;;;;;;;;;;31.11;46.29;94537.53;4981505;28;7145;-62
2023/08/23 12:47:32;;;;;;;;;;;;;;;31.14;46.18;94530.13;4968404;28;7266;-62
2023/08/23 12:50:00;;;;;;;;;;;;;;;31.15;46.51;94531.59;4971069;28;7225;-63
2023/08/23 12:52:58;;;;;;;;;;;;;;;31.17;46.45;94529.03;4985153;28;7339;-63
2023/08/23 12:55:24;;;;;;;;;;;;;;;31.16;46.13;94533.09;4916941;29;7092;-63
2023/08/23 12:58:05;;;;;;;;;;;;;;;31.13;46.02;94523.81;4899987;29;7143;-63
2023/08/23 13:00:32;;;;;;;;;;;;;;;31.13;45.83;94528.63;4932297;29;7662;-63
2023/08/23 13:03:07;;;;;;;;;;;;;;;31.16;46.48;94522.00;4891070;29;7440;-63
2023/08/23 13:05:44;;;;;;;;;;;;;;;31.15;45.74;94526.06;4918084;29;7154;-63
2023/08/23 13:08:13;;;;;;;;;;;;;;;31.16;45.93;94527.56;4898707;29;7259;-63
2023/08/23 13:10:40;;;;;;;;;;;;;;;31.18;45.82;94533.31;4918428;29;7091;-62
2023/08/23 13:13:06;;;;;;;;;;;;;;;31.17;46.32;94529.78;4920007;28;8996;-63
2023/08/23 13:15:32;;;;;;;;;;;;;;;31.20;46.02;94530.72;4944511;28;7180;-63
2023/08/23 13:17:59;;;;;;;;;;;;;;;31.16;47.39;94525.53;4949045;28;7010;-63
2023/08/23 13:20:24;;;;;;;;;;;;;;;31.19;46.21;94523.66;4948576;28;8062;-63
2023/08/23 13:23:09;;;;;;;;;;;;;;;31.30;46.81;94514.31;4933508;28;7417;-63
2023/08/23 13:25:54;;;;;;;;;;;;;;;31.31;46.46;94516.53;4936144;28;7441;-63
2023/08/23 13:28:20;;;;;;;;;;;;;;;31.35;46.41;94524.53;4951939;28;7034;-63
2023/08/23 13:30:59;;;;;;;;;;;;;;;31.33;46.57;94515.97;4952113;28;7087;-63
2023/08/23 13:33:30;;;;;;;;;;;;;;;31.38;45.91;94523.44;5002097;28;7238;-63
2023/08/23 13:35:59;;;;;;;;;;;;;;;31.36;45.68;94518.44;5003529;28;7029;-57
2023/08/23 13:38:27;;;;;;;;;;;;;;;31.38;46.08;94521.41;5027040;28;8890;-57
2023/08/23 13:40:55;;;;;;;;;;;;;;;31.38;46.15;94521.41;5000638;28;8144;-57